Time,TemperatureF,DewpointF,PressureIn,WindDirection,WindDirectionDegrees,WindSpeedMPH,WindSpeedGustMPH,Humidity,HourlyPrecipIn,Conditions,Clouds,dailyrainin,SoftwareType,DateUTC
2015-04-21 00:00:00,47.1,37.1,30.48,NNW,333,0.0,0.0,68,0.00,SCT,,0.00,WeatherDisplay:10.37,2015-04-20 23:00:00,
2015-04-21 00:10:00,46.9,36.9,30.48,NNW,342,0.0,0.0,68,0.00,SCT,,0.00,WeatherDisplay:10.37,2015-04-20 23:10:00,
2015-04-21 00:18:00,46.6,37.0,30.50,WNW,296,0.0,0.0,69,0.00,SCT,,0.00,WeatherDisplay:10.37,2015-04-20 23:18:00,
2015-04-21 00:30:00,45.7,36.1,30.50,West,273,0.0,1.0,69,0.00,SCT,,0.00,WeatherDisplay:10.37,2015-04-20 23:30:00,
2015-04-21 00:40:00,45.3,36.1,30.50,WNW,282,0.0,0.0,70,0.00,SCT,,0.00,WeatherDisplay:10.37,2015-04-20 23:40:00,
2015-04-21 00:50:00,45.0,36.1,30.50,WNW,287,0.0,0.0,71,0.00,SCT,,0.00,WeatherDisplay:10.37,2015-04-20 23:50:00,
2015-04-21 01:00:00,45.3,36.8,30.50,NNE,32,1.0,4.0,72,0.00,SCT,,0.00,WeatherDisplay:10.37,2015-04-21 00:00:00,
2015-04-21 01:10:00,45.0,36.5,30.50,NNE,23,0.0,2.0,72,0.00,SCT,,0.00,WeatherDisplay:10.37,2015-04-21 00:10:00,
2015-04-21 01:20:00,44.6,36.1,30.50,NW,308,0.0,2.0,72,0.00,SCT,,0.00,WeatherDisplay:10.37,2015-04-21 00:20:00,
2015-04-21 01:30:00,44.8,36.3,30.50,WNW,292,0.0,2.0,72,0.00,SCT,,0.00,WeatherDisplay:10.37,2015-04-21 00:30:00,
2015-04-21 01:40:00,44.5,36.1,30.50,WNW,292,0.0,0.0,72,0.00,SCT,,0.00,WeatherDisplay:10.37,2015-04-21 00:40:00,
2015-04-21 01:50:00,44.2,35.8,30.50,NW,319,1.0,3.0,72,0.00,SCT,,0.00,WeatherDisplay:10.37,2015-04-21 00:50:00,
2015-04-21 02:00:00,43.7,35.3,30.50,WNW,285,0.0,1.0,72,0.00,SCT,,0.00,WeatherDisplay:10.37,2015-04-21 01:00:00,
2015-04-21 02:10:00,43.3,35.3,30.50,West,266,1.0,2.0,73,0.00,SCT,,0.00,WeatherDisplay:10.37,2015-04-21 01:10:00,
2015-04-21 02:20:00,43.2,35.1,30.50,WNW,292,0.0,2.0,73,0.00,SCT,,0.00,WeatherDisplay:10.37,2015-04-21 01:20:00,
2015-04-21 02:30:00,43.0,34.9,30.50,WNW,292,0.0,0.0,73,0.00,SCT,,0.00,WeatherDisplay:10.37,2015-04-21 01:30:00,
2015-04-21 02:40:00,43.0,34.9,30.50,WNW,292,0.0,0.0,73,0.00,SCT,,0.00,WeatherDisplay:10.37,2015-04-21 01:40:00,
2015-04-21 02:50:00,42.8,34.4,30.50,WNW,292,0.0,0.0,72,0.00,SCT,,0.00,WeatherDisplay:10.37,2015-04-21 01:50:00,
2015-04-21 03:00:00,42.4,34.4,30.50,WNW,292,0.0,1.0,73,0.00,SCT,,0.00,WeatherDisplay:10.37,2015-04-21 02:00:00,
2015-04-21 03:10:00,42.3,33.9,30.50,WNW,292,0.0,0.0,72,0.00,SCT,,0.00,WeatherDisplay:10.37,2015-04-21 02:10:00,
2015-04-21 03:20:00,42.1,34.0,30.50,WNW,292,0.0,0.0,73,0.00,SCT,,0.00,WeatherDisplay:10.37,2015-04-21 02:20:00,
2015-04-21 03:30:00,41.9,33.9,30.50,WNW,292,0.0,0.0,73,0.00,SCT,,0.00,WeatherDisplay:10.37,2015-04-21 02:30:00,
2015-04-21 03:40:00,41.7,33.3,30.50,WNW,292,0.0,0.0,72,0.00,SCT,,0.00,WeatherDisplay:10.37,2015-04-21 02:40:00,
2015-04-21 03:50:00,41.4,33.4,30.50,WNW,292,0.0,0.0,73,0.00,SCT,,0.00,WeatherDisplay:10.37,2015-04-21 02:50:00,
2015-04-21 04:00:00,41.0,33.0,30.50,WNW,292,0.0,0.0,73,0.00,SCT,,0.00,WeatherDisplay:10.37,2015-04-21 03:00:00,
2015-04-21 04:10:00,40.8,32.8,30.50,WNW,292,0.0,0.0,73,0.00,SCT,,0.00,WeatherDisplay:10.37,2015-04-21 03:10:00,
2015-04-21 04:20:00,40.6,32.7,30.50,WNW,292,0.0,0.0,73,0.00,SCT,,0.00,WeatherDisplay:10.37,2015-04-21 03:20:00,
2015-04-21 04:30:00,40.5,32.5,30.50,WNW,292,0.0,0.0,73,0.00,SCT,,0.00,WeatherDisplay:10.37,2015-04-21 03:30:00,
2015-04-21 04:40:00,40.2,32.6,30.50,WNW,292,0.0,0.0,74,0.00,SCT,,0.00,WeatherDisplay:10.37,2015-04-21 03:40:00,
2015-04-21 04:50:00,39.9,32.3,30.50,WNW,292,0.0,0.0,74,0.00,SCT,,0.00,WeatherDisplay:10.37,2015-04-21 03:50:00,
2015-04-21 05:00:00,39.7,32.1,30.50,WNW,292,0.0,0.0,74,0.00,SCT,,0.00,WeatherDisplay:10.37,2015-04-21 04:00:00,
2015-04-21 05:10:00,39.7,32.1,30.50,WNW,292,0.0,0.0,74,0.00,SCT,,0.00,WeatherDisplay:10.37,2015-04-21 04:10:00,
2015-04-21 05:20:00,39.6,32.0,30.50,WNW,292,0.0,0.0,74,0.00,SCT,,0.00,WeatherDisplay:10.37,2015-04-21 04:20:00,
2015-04-21 05:30:00,39.1,31.8,30.50,WNW,292,0.0,0.0,75,0.00,SCT,,0.00,WeatherDisplay:10.37,2015-04-21 04:30:00,
2015-04-21 05:40:00,38.8,31.6,30.50,WNW,292,0.0,0.0,75,0.00,SCT,,0.00,WeatherDisplay:10.37,2015-04-21 04:40:00,
2015-04-21 05:50:00,38.8,31.6,30.50,WNW,292,0.0,0.0,75,0.00,SCT,,0.00,WeatherDisplay:10.37,2015-04-21 04:50:00,
2015-04-21 06:00:00,38.8,31.6,30.50,WNW,292,0.0,0.0,75,0.00,SCT,,0.00,WeatherDisplay:10.37,2015-04-21 05:00:00,
2015-04-21 06:10:00,38.7,31.4,30.50,WNW,292,0.0,0.0,75,0.00,SCT,,0.00,WeatherDisplay:10.37,2015-04-21 05:10:00,
2015-04-21 06:20:00,38.7,31.4,30.50,WNW,292,0.0,0.0,75,0.00,SCT,,0.00,WeatherDisplay:10.37,2015-04-21 05:20:00,
2015-04-21 06:30:00,38.7,31.4,30.50,WNW,292,0.0,0.0,75,0.00,SCT,,0.00,WeatherDisplay:10.37,2015-04-21 05:30:00,
2015-04-21 06:40:00,38.8,31.6,30.50,WNW,292,0.0,0.0,75,0.00,SCT,,0.00,WeatherDisplay:10.37,2015-04-21 05:40:00,
2015-04-21 06:50:00,39.2,31.9,30.53,WNW,292,0.0,0.0,75,0.00,SCT,,0.00,WeatherDisplay:10.37,2015-04-21 05:50:00,
2015-04-21 07:00:00,39.4,32.4,30.53,WNW,292,0.0,0.0,76,0.00,SCT,,0.00,WeatherDisplay:10.37,2015-04-21 06:00:00,
2015-04-21 07:10:00,39.6,32.6,30.53,WNW,292,0.0,0.0,76,0.00,SCT,,0.00,WeatherDisplay:10.37,2015-04-21 06:10:00,
2015-04-21 07:20:00,39.7,32.8,30.53,WNW,292,0.0,0.0,76,0.00,SCT,,0.00,WeatherDisplay:10.37,2015-04-21 06:20:00,
2015-04-21 07:30:00,39.8,32.9,30.53,WNW,292,0.0,0.0,76,0.00,SCT,,0.00,WeatherDisplay:10.37,2015-04-21 06:30:00,
2015-04-21 07:50:00,40.6,33.7,30.53,NW,321,0.0,4.0,76,0.00,SCT,,0.00,WeatherDisplay:10.37,2015-04-21 06:50:00,
2015-04-21 08:00:00,41.3,34.3,30.53,NNW,328,5.0,5.0,76,0.00,SCT,,0.00,WeatherDisplay:10.37,2015-04-21 07:00:00,
2015-04-21 08:10:00,42.4,35.7,30.53,NE,48,0.0,5.0,77,0.00,SCT,,0.00,WeatherDisplay:10.37,2015-04-21 07:10:00,